Tyrone, Georgia
Current Conditions -  °F | °C
As of 6:53 AM on Thursday 29 Jan 2015 (Local Time) from KFFC Reporting Station
Clear Clear  
Wind Chill: 27°   Ceiling: Unl
Heat Index: 27°   Visibility: 8mi
Dew Point: 25°   Wind: 0mph
Humidity: 92%   Direction: NA
Pressure: 30.29"   Gusts: NA
Location:  33.47°N, 84.6°W
Report Text: KFFC 291153Z AUTO 00000KT 8SM CLR M03/M04 A3029 RMK AO2 SLP264 I1000 I6000 T10281039 11011 21028 55005
Loading
Personal Weather Stations






























Interactive Weather Map New forecast layout! Learn more

10-Day Weather Forecast

Advertisements
Track Severe Weather on mobile